Latest Weather Observations for Thargomindah

IDQ60801

Issued at 5:03 pm EST Thursday 30 May 2024 (issued every 10 minutes, with the page automatically refreshed every 10 minutes)

About weather observations | Map of weather stations | Latest weather observations for QLD | Other Formats
Station Details ID: 045025 Name: THARGOMINDAH AIRPORT Lat: -27.99 Lon: 143.81 Height: 130.89 m
Data from the previous 72 hours. | See also: Recent months at Thargomindah
Date/Time
EST
Temp
°C
App
Temp
°C
Dew
Point
°C
Rel
Hum
%
Delta-T
°C
Wind Press
QNH
hPa
Press
MSL
hPa
Rain since
9am
mm
Dir  Spd
km/h
Gust
km/h
Spd
kts
Gust
kts
30/05:00pm 25.5 23.3 12.0 43 7.8 NNE 15 20 8 11 1016.5 1016.3 0.0
30/04:30pm 25.4 23.3 12.3 44 7.6 N 15 20 8 11 1016.4 1016.2 0.0
30/04:00pm 25.4 22.3 12.3 44 7.6 N 20 26 11 14 1016.5 1016.3 0.0
30/03:30pm 25.4 21.1 11.9 43 7.7 N 26 35 14 19 1016.4 1016.2 0.0
30/03:00pm 25.5 21.3 12.4 44 7.6 N 26 39 14 21 1016.2 1016.0 0.0
30/02:30pm 25.7 22.6 12.2 43 7.8 N 20 30 11 16 1016.4 1016.2 0.0
30/02:00pm 25.7 20.7 12.2 43 7.8 N 30 39 16 21 1017.1 1016.9 0.0
30/01:30pm 26.5 21.2 12.5 41 8.2 N 32 44 17 24 1017.7 1017.5 0.0
30/01:00pm 25.4 20.4 12.3 44 7.6 N 30 41 16 22 1018.5 1018.2 0.0
30/12:30pm 25.6 21.9 12.8 45 7.5 N 24 33 13 18 1019.2 1018.9 0.0
30/12:00pm 24.2 19.3 12.5 48 6.7 N 30 39 16 21 1019.7 1019.4 0.0
30/11:30am 23.9 19.4 12.5 49 6.6 N 28 39 15 21 1020.4 1020.2 0.0
30/11:00am 23.6 18.2 12.3 49 6.5 N 32 43 17 23 1020.6 1020.4 0.0
30/10:30am 22.8 17.6 12.7 53 5.8 N 32 41 17 22 1021.0 1020.8 0.0
30/10:00am 21.3 16.4 12.4 57 5.0 N 30 50 16 27 1021.1 1020.9 0.0
30/09:30am 20.9 15.0 12.3 58 4.9 NNE 35 50 19 27 1021.1 1020.9 0.0
30/09:00am 20.0 15.8 12.3 61 4.3 NNE 26 35 14 19 1021.1 1020.9 0.0
30/08:30am 18.7 14.7 11.8 64 3.8 NNE 24 35 13 19 1021.1 1020.9 0.0
30/08:00am 17.8 14.4 11.4 66 3.5 NNE 20 28 11 15 1021.2 1021.0 0.0
30/07:30am 16.8 13.7 10.4 66 3.4 NE 17 24 9 13 1021.1 1020.9 0.0
30/07:00am 16.7 13.5 10.1 65 3.5 NNE 17 22 9 12 1021.0 1020.8 0.0
30/06:30am 16.9 13.7 9.8 63 3.8 NE 17 22 9 12 1020.7 1020.5 0.0
30/06:00am 17.0 14.1 9.7 62 3.8 NE 15 19 8 10 1020.4 1020.2 0.0
30/05:30am 17.3 14.0 9.5 60 4.1 NNE 17 20 9 11 1020.1 1019.9 0.0
30/05:00am 17.1 14.5 9.3 60 4.1 NNE 13 17 7 9 1019.9 1019.6 0.0
30/04:30am 16.8 14.1 8.8 59 4.1 NE 13 17 7 9 1019.8 1019.5 0.0
30/04:00am 17.1 14.7 8.5 57 4.4 NNE 11 15 6 8 1019.8 1019.5 0.0
30/03:30am 17.3 14.3 7.9 54 4.8 NE 13 19 7 10 1019.9 1019.6 0.0
30/03:00am 17.7 14.3 7.7 52 5.1 NE 15 20 8 11 1019.8 1019.5 0.0
30/02:30am 17.7 14.6 7.4 51 5.2 NE 13 20 7 11 1019.8 1019.5 0.0
30/02:00am 17.8 14.7 7.2 50 5.3 NE 13 19 7 10 1019.8 1019.5 0.0
30/01:30am 18.1 14.6 7.2 49 5.5 NE 15 20 8 11 1019.9 1019.6 0.0
30/01:00am 18.5 15.0 7.0 47 5.8 ENE 15 19 8 10 1020.2 1020.0 0.0
30/12:30am 19.2 15.3 7.0 45 6.2 ENE 17 20 9 11 1020.3 1020.1 0.0
30/12:00am 18.5 15.3 7.0 47 5.8 ENE 13 19 7 10 1020.6 1020.4 0.0
 
Date/Time
EST
Temp
°C
App
Temp
°C
Dew
Point
°C
Rel
Hum
%
Delta-T
°C
Wind Press
QNH
hPa
Press
MSL
hPa
Rain since
9am
mm
Dir  Spd
km/h
Gust
km/h
Spd
kts
Gust
kts
29/11:30pm 18.5 15.3 6.7 46 5.9 ENE 13 17 7 9 1020.6 1020.4 0.0
29/11:00pm 18.6 15.4 6.8 46 5.9 ENE 13 17 7 9 1020.7 1020.5 0.0
29/10:30pm 18.7 15.9 6.9 46 6.0 ENE 11 15 6 8 1020.9 1020.7 0.0
29/10:00pm 18.7 15.8 6.5 45 6.1 ENE 11 15 6 8 1021.0 1020.8 0.0
29/09:30pm 19.4 16.2 6.8 44 6.4 ENE 13 15 7 8 1021.1 1020.9 0.0
29/09:00pm 19.7 16.5 6.8 43 6.5 ENE 13 15 7 8 1021.2 1021.0 0.0
29/08:30pm 19.8 17.0 6.9 43 6.6 ENE 11 15 6 8 1021.4 1021.2 0.0
29/08:00pm 20.0 17.2 7.1 43 6.6 ENE 11 15 6 8 1021.1 1020.9 0.0
29/07:30pm 20.4 17.9 6.7 41 7.0 ENE 9 11 5 6 1021.1 1020.9 0.0
29/07:00pm 21.0 18.3 7.3 41 7.1 ENE 11 13 6 7 1020.9 1020.7 0.0
29/06:30pm 21.6 19.2 7.1 39 7.5 ENE 9 11 5 6 1020.9 1020.7 0.0
29/06:00pm 22.6 20.5 6.8 36 8.1 ENE 7 9 4 5 1020.7 1020.5 0.0
29/05:30pm 24.5 21.4 7.2 33 9.1 ENE 13 19 7 10 1020.4 1020.2 0.0
29/05:00pm 25.6 22.5 7.2 31 9.7 NE 13 19 7 10 1020.3 1020.1 0.0
29/04:30pm 25.9 22.9 7.5 31 9.8 NE 13 20 7 11 1020.2 1020.0 0.0
29/04:00pm 26.3 22.6 7.8 31 9.9 ENE 17 24 9 13 1020.0 1019.7 0.0
29/03:30pm 26.0 21.8 7.6 31 9.8 NNE 19 28 10 15 1020.2 1020.0 0.0
29/03:00pm 26.3 22.1 7.4 30 10.1 NNE 19 30 10 16 1020.4 1020.2 0.0
29/02:30pm 26.5 22.4 8.0 31 10.0 N 19 32 10 17 1020.7 1020.5 0.0
29/02:00pm 26.4 22.5 8.8 33 9.6 N 19 30 10 16 1021.1 1020.9 0.0
29/01:30pm 25.9 22.3 10.5 38 8.7 N 20 28 11 15 1021.4 1021.2 0.0
29/01:00pm 25.3 21.4 10.7 40 8.2 N 22 32 12 17 1021.9 1021.7 0.0
29/12:30pm 24.8 20.2 11.0 42 7.8 N 26 33 14 18 1022.4 1022.2 0.0
29/12:00pm 24.2 19.5 10.8 43 7.5 N 26 35 14 19 1023.1 1022.9 0.0
29/11:30am 23.5 19.6 10.9 45 7.0 N 22 33 12 18 1023.6 1023.4 0.0
29/11:00am 22.4 18.2 9.9 45 6.8 NNE 22 32 12 17 1024.2 1024.0 0.0
29/10:30am 21.7 17.8 9.3 45 6.7 NNE 20 30 11 16 1024.6 1024.4 0.0
29/10:00am 20.2 15.6 8.2 46 6.2 NNE 22 30 12 16 1024.6 1024.4 0.0
29/09:30am 19.2 15.5 7.9 48 5.8 NNE 17 24 9 13 1024.7 1024.5 0.0
29/09:00am 17.8 14.8 7.8 52 5.1 ENE 13 20 7 11 1024.5 1024.3 0.0
29/08:30am 16.0 13.6 7.0 55 4.5 ENE 9 13 5 7 1024.4 1024.2 0.0
29/08:00am 14.5 11.7 6.8 60 3.7 ENE 11 15 6 8 1024.0 1023.8 0.0
29/07:30am 13.2 9.9 6.3 63 3.3 ENE 13 15 7 8 1023.7 1023.5 0.0
29/07:00am 12.7 9.7 6.1 64 3.1 ENE 11 13 6 7 1023.4 1023.2 0.0
29/06:30am 13.0 10.0 6.1 63 3.3 ENE 11 15 6 8 1023.1 1022.9 0.0
29/06:00am 13.2 9.8 5.9 61 3.5 ENE 13 15 7 8 1022.7 1022.5 0.0
29/05:30am 13.7 10.0 6.1 60 3.6 E 15 20 8 11 1022.6 1022.4 0.0
29/05:00am 13.7 10.3 6.1 60 3.6 E 13 17 7 9 1022.7 1022.5 0.0
29/04:30am 13.6 10.2 6.0 60 3.6 E 13 17 7 9 1022.6 1022.4 0.0
29/04:00am 13.7 10.2 5.6 58 3.8 E 13 15 7 8 1022.7 1022.5 0.0
29/03:30am 13.9 10.4 5.5 57 4.0 E 13 17 7 9 1022.7 1022.5 0.0
29/03:00am 14.3 10.4 5.4 55 4.2 E 15 20 8 11 1022.7 1022.5 0.0
29/02:30am 14.3 10.4 5.4 55 4.2 E 15 17 8 9 1022.8 1022.6 0.0
29/02:00am 14.6 10.6 5.1 53 4.5 E 15 17 8 9 1022.9 1022.7 0.0
29/01:30am 14.9 11.3 4.9 51 4.7 ESE 13 17 7 9 1022.9 1022.7 0.0
29/01:00am 15.1 11.5 4.8 50 4.8 ESE 13 15 7 8 1023.0 1022.8 0.0
29/12:30am 15.2 11.6 4.9 50 4.9 ESE 13 17 7 9 1023.1 1022.9 0.0
29/12:00am 15.2 12.0 4.9 50 4.8 ESE 11 15 6 8 1023.4 1023.2 0.0
 
Date/Time
EST
Temp
°C
App
Temp
°C
Dew
Point
°C
Rel
Hum
%
Delta-T
°C
Wind Press
QNH
hPa
Press
MSL
hPa
Rain since
9am
mm
Dir  Spd
km/h
Gust
km/h
Spd
kts
Gust
kts
28/11:30pm 14.9 11.7 4.9 51 4.7 ESE 11 13 6 7 1023.5 1023.3 0.0
28/11:00pm 14.4 11.5 4.7 52 4.5 ESE 9 11 5 6 1023.7 1023.5 0.0
28/10:30pm 14.5 12.0 4.5 51 4.7 ESE 7 11 4 6 1023.8 1023.6 0.0
28/10:00pm 15.1 12.2 4.5 49 4.9 ESE 9 11 5 6 1023.8 1023.6 0.0
28/09:30pm 15.7 12.8 4.4 47 5.3 SE 9 11 5 6 1023.7 1023.5 0.0
28/09:00pm 16.4 13.1 4.4 45 5.6 SE 11 13 6 7 1023.5 1023.3 0.0
28/08:30pm 17.2 13.9 4.5 43 6.0 SE 11 13 6 7 1023.3 1023.1 0.0
28/08:00pm 17.7 14.4 4.3 41 6.3 ESE 11 13 6 7 1023.3 1023.1 0.0
28/07:30pm 18.1 14.8 4.3 40 6.6 SE 11 11 6 6 1023.2 1023.0 0.0
28/07:00pm 18.7 15.7 4.1 38 6.9 SE 9 11 5 6 1023.0 1022.8 0.0
28/06:30pm 19.2 16.6 4.2 37 7.2 SE 7 9 4 5 1022.9 1022.7 0.0
28/06:00pm 20.2 17.5 3.9 34 7.8 SE 7 9 4 5 1022.7 1022.5 0.0
28/05:30pm 21.9 18.8 3.6 30 8.9 SE 9 13 5 7 1022.6 1022.4 0.0
28/05:00pm 23.0 19.5 3.5 28 9.5 ESE 11 15 6 8 1022.4 1022.2 0.0
28/04:30pm 23.5 19.2 3.4 27 9.8 E 15 20 8 11 1022.2 1022.0 0.0
28/04:00pm 23.7 19.4 3.1 26 10.0 ESE 15 20 8 11 1022.1 1021.9 0.0
28/03:30pm 23.9 19.7 3.8 27 9.9 E 15 24 8 13 1022.2 1022.0 0.0
28/03:00pm 24.2 20.7 3.5 26 10.1 E 11 19 6 10 1022.2 1022.0 0.0
28/02:30pm 23.9 19.7 3.8 27 9.9 E 15 22 8 12 1022.4 1022.2 0.0
28/02:00pm 23.6 19.4 4.0 28 9.6 E 15 26 8 14 1022.7 1022.5 0.0
28/01:30pm 23.2 18.6 3.7 28 9.5 E 17 24 9 13 1023.2 1023.0 0.0
28/01:00pm 23.4 18.6 4.4 29 9.4 E 19 26 10 14 1023.6 1023.4 0.0
28/12:30pm 22.5 18.0 4.1 30 9.0 ENE 17 26 9 14 1024.3 1024.1 0.0
28/12:00pm 22.6 18.0 5.5 33 8.6 E 19 28 10 15 1024.8 1024.6 0.0
28/11:30am 21.8 17.5 5.3 34 8.2 ENE 17 30 9 16 1025.2 1025.0 0.0
28/11:00am 21.4 17.3 6.1 37 7.7 E 17 26 9 14 1025.6 1025.4 0.0
28/10:30am 20.2 16.0 5.8 39 7.2 ENE 17 22 9 12 1026.0 1025.7 0.0
28/10:00am 18.9 14.7 5.7 42 6.5 ENE 17 22 9 12 1026.1 1025.8 0.0
28/09:30am 18.1 14.3 6.0 45 6.0 ENE 15 24 8 13 1026.1 1025.8 0.0
28/09:00am 15.9 12.0 5.5 50 5.0 E 15 20 8 11 1026.1 1025.8 0.0
28/08:30am 13.3 10.6 5.7 60 3.6 E 9 13 5 7 1025.8 1025.6 0.0
28/08:00am 11.5 8.7 5.2 65 2.9 SE 9 11 5 6 1025.7 1025.5 0.0
28/07:30am 10.3 7.8 4.7 68 2.5 SE 7 9 4 5 1025.4 1025.2 0.0
28/07:00am 10.2 6.9 4.6 68 2.5 SE 11 13 6 7 1025.1 1024.9 0.0
28/06:30am 10.3 7.4 4.5 67 2.6 SE 9 11 5 6 1024.8 1024.6 0.0
28/06:00am 10.8 7.8 4.3 64 2.9 SE 9 13 5 7 1024.6 1024.4 0.0
28/05:30am 10.9 7.5 4.1 63 3.1 SE 11 13 6 7 1024.4 1024.2 0.0
28/05:00am 11.0 8.0 4.2 63 3.0 SE 9 11 5 6 1024.3 1024.1 0.0
28/04:30am 11.1 8.1 4.1 62 3.1 SSE 9 11 5 6 1024.2 1024.0 0.0
28/04:00am 11.5 8.5 4.0 60 3.4 SE 9 11 5 6 1024.2 1024.0 0.0
28/03:30am 11.7 8.7 4.0 59 3.5 SSE 9 11 5 6 1024.3 1024.1 0.0
28/03:00am 12.2 9.2 3.9 57 3.7 SSE 9 11 5 6 1024.0 1023.8 0.0
28/02:30am 13.0 9.6 4.2 55 4.0 SE 11 13 6 7 1024.1 1023.9 0.0
28/02:00am 13.1 9.8 4.3 55 4.0 SE 11 13 6 7 1024.3 1024.1 0.0
28/01:30am 13.4 10.1 4.3 54 4.2 SE 11 13 6 7 1024.3 1024.1 0.0
28/01:00am 13.6 10.3 4.5 54 4.2 SE 11 13 6 7 1024.4 1024.2 0.0
28/12:30am 13.8 10.6 5.2 56 4.0 SSE 11 13 6 7 1024.5 1024.3 0.0
28/12:00am 14.0 10.5 5.6 57 4.0 SSE 13 15 7 8 1024.7 1024.5 0.0
 
Date/Time
EST
Temp
°C
App
Temp
°C
Dew
Point
°C
Rel
Hum
%
Delta-T
°C
Wind Press
QNH
hPa
Press
MSL
hPa
Rain since
9am
mm
Dir  Spd
km/h
Gust
km/h
Spd
kts
Gust
kts
27/11:30pm 14.3 11.3 5.9 57 4.0 SSE 11 13 6 7 1024.7 1024.5 0.0
27/11:00pm 14.9 11.9 6.2 56 4.2 SSE 11 15 6 8 1024.5 1024.3 0.0
27/10:30pm 15.2 12.2 6.2 55 4.4 SSE 11 13 6 7 1024.5 1024.3 0.0
27/10:00pm 15.8 12.5 6.3 53 4.6 S 13 15 7 8 1024.6 1024.4 0.0
27/09:30pm 16.0 12.7 6.4 53 4.7 S 13 13 7 7 1024.5 1024.3 0.0
27/09:00pm 16.4 13.8 6.2 51 5.0 SSE 9 11 5 6 1024.4 1024.2 0.0
27/08:30pm 17.0 14.0 6.2 49 5.3 SSE 11 13 6 7 1024.1 1023.9 0.0
27/08:00pm 17.6 15.0 6.2 47 5.6 SSE 9 11 5 6 1024.0 1023.8 0.0
27/07:30pm 18.5 15.1 6.0 44 6.2 S 13 13 7 7 1023.9 1023.7 0.0
27/07:00pm 18.8 15.5 6.3 44 6.2 S 13 15 7 8 1023.7 1023.5 0.0
27/06:30pm 19.2 16.3 6.7 44 6.3 S 11 13 6 7 1023.6 1023.4 0.0
27/06:00pm 20.2 17.8 6.9 42 6.8 S 9 11 5 6 1023.4 1023.2 0.0
27/05:30pm 21.8 18.9 6.5 37 7.8 S 11 13 6 7 1023.2 1023.0 0.0

Other formats

Comma delimited format used in spreadsheet applications
http://www.bom.gov.au/fwo/IDQ60801/IDQ60801.95492.axf

JavaScript Object Notation format (JSON) in row-major order
http://www.bom.gov.au/fwo/IDQ60801/IDQ60801.95492.json

Data quality

Most of these data are generated automatically and are frequently updated. Quality checks on data are not normally performed. It is possible for incorrect values to appear. Refer to information at About Latest Weather Observations and please check the disclaimer before using these data.